Decoded Metar for K2DP (STUMPY POINT in NC, USA) (IATA:2DP) | Meteo·Mobile Aviation Weather
aviador You're here:

K2DP Decoded Metar

STUMPY POINT in NC, USA
Report Time2018-11-20 05:51:00
UTC Time2018-11-20 05:59:15
Flight Rules lifr LIFR
Wind220° at 03 kt
W.Rank220° ranks 2
Current wind is below 220° avg. (8.0)
Visibility3018 m
Phenomena:Mist
Clouds:Broken 002 Hf
Ceiling200 ft
Temp11°C (ISA -4)
Dew Point11°C (100% RH)
AAT10.2°C
QNH1015 hPa
Density Alt-358 ft
Elevation10 ft
Report Wrong Elevation
Raw Report
SPECI K2DP 200551Z AUTO 22003KT 1 7/8SM BR BKN002 11/11 A2998 RMK AO2
VIS 1 7/8V4 SLPNO=

Extra information for K2DP:More info

Metar Taf Metar & Taf Last 4 Metars F.Rules Stats Wind Profile Meteogram Temp Stats Airport Information Weather charts Add Link Nearby VenuesMetar ALERT Operation Metar Decoded Social comments

AIRNAV info for K2DP